Time;durP1;ratioP1;P1;durP2;ratioP2;P2;SDS_P1;SDS_P2;PMS_P1;PMS_P2;Temp;Humidity;BMP_temperature;BMP_pressure;BME280_temperature;BME280_humidity;BME280_pressure;Samples;Min_cycle;Max_cycle;Signal;HPM_P1;HPM_P2
2022/03/12 00:01:21;;;;;;;9.18;7.20;;;;;;;;;;5095944;28;20214;-64
2022/03/12 00:03:48;;;;;;;10.18;8.02;;;;;;;;;;5095476;28;20201;-64
2022/03/12 00:06:15;;;;;;;10.20;7.00;;;;;;;;;;5095890;28;20195;-64
2022/03/12 00:08:44;;;;;;;11.20;7.95;;;;;;;;;;5095432;28;20191;-64
2022/03/12 00:11:12;;;;;;;14.88;7.80;;;;;;;;;;5095338;28;20579;-64
2022/03/12 00:13:41;;;;;;;9.65;7.25;;;;;;;;;;5095877;28;20190;-64
2022/03/12 00:16:10;;;;;;;9.85;7.25;;;;;;;;;;5095125;28;20224;-64
2022/03/12 00:18:38;;;;;;;10.32;7.00;;;;;;;;;;5095089;28;20191;-64
2022/03/12 00:21:06;;;;;;;9.93;8.38;;;;;;;;;;5094635;28;20198;-64
2022/03/12 00:23:34;;;;;;;9.32;7.35;;;;;;;;;;5095325;28;20643;-64
2022/03/12 00:26:02;;;;;;;13.77;7.47;;;;;;;;;;5094350;28;20540;-64
2022/03/12 00:28:29;;;;;;;9.95;8.45;;;;;;;;;;5094638;28;20195;-64
2022/03/12 00:30:57;;;;;;;14.05;7.30;;;;;;;;;;5094810;28;20208;-64
2022/03/12 00:33:25;;;;;;;15.23;7.65;;;;;;;;;;5094497;28;20203;-63
2022/03/12 00:35:53;;;;;;;9.27;7.38;;;;;;;;;;5094313;28;20223;-64
2022/03/12 00:38:22;;;;;;;11.82;8.88;;;;;;;;;;5094723;28;20211;-63
2022/03/12 00:40:50;;;;;;;11.38;7.40;;;;;;;;;;5094764;28;20205;-64
2022/03/12 00:43:18;;;;;;;10.55;8.05;;;;;;;;;;5094387;28;20195;-63
2022/03/12 00:45:46;;;;;;;9.35;7.47;;;;;;;;;;5094249;28;20207;-64
2022/03/12 00:48:15;;;;;;;11.48;7.53;;;;;;;;;;5094386;28;20648;-63
2022/03/12 00:50:42;;;;;;;10.18;7.50;;;;;;;;;;5094326;28;20202;-63
2022/03/12 00:53:09;;;;;;;8.43;6.80;;;;;;;;;;5094309;28;20195;-62
2022/03/12 00:55:37;;;;;;;8.65;6.50;;;;;;;;;;5094155;28;20204;-62
2022/03/12 00:58:04;;;;;;;9.65;7.32;;;;;;;;;;5094483;28;20660;-62
2022/03/12 01:00:32;;;;;;;8.85;6.70;;;;;;;;;;5094328;28;20192;-63
2022/03/12 01:02:59;;;;;;;8.68;6.45;;;;;;;;;;5093839;28;20195;-62
2022/03/12 01:05:43;;;;;;;10.02;6.95;;;;;;;;;;5093928;28;20195;-62
2022/03/12 01:08:10;;;;;;;12.30;7.25;;;;;;;;;;5094416;28;20630;-62
2022/03/12 01:10:37;;;;;;;9.20;7.60;;;;;;;;;;5094232;28;20221;-62
2022/03/12 01:13:05;;;;;;;8.18;6.80;;;;;;;;;;5094135;28;20200;-63
2022/03/12 01:15:32;;;;;;;7.65;6.63;;;;;;;;;;5094030;28;20218;-62
2022/03/12 01:17:59;;;;;;;8.48;7.53;;;;;;;;;;5093751;28;20200;-62
2022/03/12 01:20:27;;;;;;;8.35;7.25;;;;;;;;;;5094030;28;20194;-63
2022/03/12 01:22:55;;;;;;;10.63;7.93;;;;;;;;;;5093738;28;20299;-62
2022/03/12 01:25:22;;;;;;;13.27;6.72;;;;;;;;;;5094260;28;20196;-63
2022/03/12 01:27:50;;;;;;;8.90;6.78;;;;;;;;;;5093638;28;20192;-63
2022/03/12 01:30:26;;;;;;;7.85;6.70;;;;;;;;;;5093858;28;20293;-66
2022/03/12 01:32:53;;;;;;;7.97;6.63;;;;;;;;;;5094111;28;20272;-63
2022/03/12 01:35:21;;;;;;;9.35;6.38;;;;;;;;;;5094024;28;20231;-63
2022/03/12 01:37:48;;;;;;;7.30;6.68;;;;;;;;;;5093709;28;20264;-62
2022/03/12 01:40:17;;;;;;;8.98;7.22;;;;;;;;;;5093706;28;20204;-63
2022/03/12 01:42:44;;;;;;;12.93;7.32;;;;;;;;;;5093748;28;20191;-62
2022/03/12 01:45:13;;;;;;;11.80;7.35;;;;;;;;;;5093350;28;20254;-62
2022/03/12 01:47:41;;;;;;;8.32;6.95;;;;;;;;;;5093690;28;20280;-62
2022/03/12 01:50:08;;;;;;;8.65;6.75;;;;;;;;;;5093328;28;20272;-62
2022/03/12 01:52:36;;;;;;;7.18;6.13;;;;;;;;;;5093785;28;20203;-63
2022/03/12 01:55:03;;;;;;;8.32;6.63;;;;;;;;;;5093797;28;20233;-62
2022/03/12 01:57:32;;;;;;;8.00;7.10;;;;;;;;;;5094115;28;20257;-63
2022/03/12 02:00:00;;;;;;;6.97;5.97;;;;;;;;;;5093183;28;20644;-63
2022/03/12 02:02:29;;;;;;;10.65;6.75;;;;;;;;;;5093517;28;20194;-62
2022/03/12 02:04:56;;;;;;;9.48;6.80;;;;;;;;;;5093475;28;20610;-63
2022/03/12 02:07:23;;;;;;;10.27;6.60;;;;;;;;;;5093064;28;20233;-63
2022/03/12 02:09:51;;;;;;;8.82;6.93;;;;;;;;;;5093547;28;20525;-63
2022/03/12 02:12:18;;;;;;;7.85;6.55;;;;;;;;;;5093403;28;20201;-63
2022/03/12 02:14:47;;;;;;;7.40;6.55;;;;;;;;;;5093089;28;20288;-63
2022/03/12 02:17:14;;;;;;;11.23;7.13;;;;;;;;;;5096812;28;20249;-63
2022/03/12 02:19:42;;;;;;;11.23;6.90;;;;;;;;;;5097170;28;20661;-63
2022/03/12 02:22:10;;;;;;;7.43;6.72;;;;;;;;;;5097103;28;20733;-63
2022/03/12 02:24:39;;;;;;;9.95;7.20;;;;;;;;;;5097641;28;20292;-63
2022/03/12 02:27:08;;;;;;;13.65;6.07;;;;;;;;;;5097245;28;20197;-63
2022/03/12 02:29:35;;;;;;;8.20;6.45;;;;;;;;;;5097267;28;20194;-63
2022/03/12 02:32:05;;;;;;;8.68;6.75;;;;;;;;;;5096862;28;20194;-63
2022/03/12 02:34:35;;;;;;;9.07;6.60;;;;;;;;;;5097183;28;20200;-63
2022/03/12 02:37:02;;;;;;;9.10;7.10;;;;;;;;;;5096740;28;20744;-63
2022/03/12 02:39:30;;;;;;;7.35;5.95;;;;;;;;;;5096792;28;20289;-63
2022/03/12 02:42:01;;;;;;;10.40;6.72;;;;;;;;;;5097047;28;20198;-64
2022/03/12 02:44:28;;;;;;;9.43;6.60;;;;;;;;;;5096832;28;20187;-63
2022/03/12 02:47:10;;;;;;;9.30;7.07;;;;;;;;;;5096943;28;20199;-63
2022/03/12 02:49:39;;;;;;;11.20;7.28;;;;;;;;;;5096932;28;20190;-63
2022/03/12 02:52:06;;;;;;;7.50;6.57;;;;;;;;;;5097090;28;20196;-64
2022/03/12 02:54:34;;;;;;;12.45;6.70;;;;;;;;;;5097488;28;20317;-65
2022/03/12 02:57:03;;;;;;;8.00;6.53;;;;;;;;;;5096627;28;20218;-64
2022/03/12 02:59:30;;;;;;;11.05;6.85;;;;;;;;;;5096699;28;20195;-63
2022/03/12 03:02:00;;;;;;;8.52;6.60;;;;;;;;;;5096663;28;20547;-63
2022/03/12 03:04:27;;;;;;;8.55;6.28;;;;;;;;;;5097049;28;20218;-63
2022/03/12 03:06:58;;;;;;;7.88;6.90;;;;;;;;;;5096510;28;20210;-64
2022/03/12 03:09:25;;;;;;;10.35;7.13;;;;;;;;;;5096740;28;20191;-63
2022/03/12 03:11:53;;;;;;;10.82;7.05;;;;;;;;;;5096113;28;20197;-63
2022/03/12 03:14:26;;;;;;;8.38;6.57;;;;;;;;;;5096235;28;20202;-64
2022/03/12 03:16:53;;;;;;;10.82;7.53;;;;;;;;;;5096631;28;20228;-63
2022/03/12 03:19:25;;;;;;;9.23;6.60;;;;;;;;;;5096338;28;20190;-63
2022/03/12 03:21:54;;;;;;;12.40;8.20;;;;;;;;;;5096709;28;20212;-64
2022/03/12 03:24:21;;;;;;;7.00;6.30;;;;;;;;;;5096318;28;20201;-63
2022/03/12 03:26:52;;;;;;;9.75;6.63;;;;;;;;;;5095903;28;20231;-63
2022/03/12 03:29:21;;;;;;;8.85;8.00;;;;;;;;;;5096337;28;20195;-63
2022/03/12 03:31:49;;;;;;;7.97;6.72;;;;;;;;;;5095725;28;20246;-63
2022/03/12 03:34:17;;;;;;;15.43;7.10;;;;;;;;;;5096141;28;20217;-64
2022/03/12 03:36:44;;;;;;;10.70;7.30;;;;;;;;;;5096174;28;20225;-63
2022/03/12 03:39:11;;;;;;;9.82;6.70;;;;;;;;;;5096683;28;20190;-64
2022/03/12 03:41:39;;;;;;;7.30;6.57;;;;;;;;;;5096061;28;20200;-64
2022/03/12 03:44:06;;;;;;;7.50;6.70;;;;;;;;;;5096004;28;20216;-63
2022/03/12 03:46:34;;;;;;;7.70;6.50;;;;;;;;;;5095526;28;20198;-63
2022/03/12 03:49:03;;;;;;;8.40;6.55;;;;;;;;;;5095917;28;20190;-63
2022/03/12 03:51:30;;;;;;;7.30;6.43;;;;;;;;;;5095978;28;20280;-63
2022/03/12 03:53:58;;;;;;;6.72;6.07;;;;;;;;;;5095559;28;20232;-63
2022/03/12 03:56:25;;;;;;;8.43;7.00;;;;;;;;;;5095807;28;20221;-63
2022/03/12 03:58:52;;;;;;;15.30;8.60;;;;;;;;;;5095623;28;20194;-63
2022/03/12 04:01:22;;;;;;;10.85;7.03;;;;;;;;;;5095967;28;20201;-63
2022/03/12 04:03:49;;;;;;;9.32;7.03;;;;;;;;;;5095146;28;20559;-63
2022/03/12 04:06:19;;;;;;;9.70;6.55;;;;;;;;;;5095550;28;20208;-64
2022/03/12 04:08:46;;;;;;;8.23;6.88;;;;;;;;;;5095420;28;20662;-63
2022/03/12 04:11:15;;;;;;;10.27;6.75;;;;;;;;;;5095178;28;20196;-64
2022/03/12 04:13:43;;;;;;;9.07;6.88;;;;;;;;;;5095308;28;20209;-64
2022/03/12 04:16:10;;;;;;;11.60;6.93;;;;;;;;;;5095367;28;20199;-63
2022/03/12 04:18:39;;;;;;;10.13;6.70;;;;;;;;;;5095042;28;20267;-63
2022/03/12 04:21:06;;;;;;;8.60;6.85;;;;;;;;;;5095201;28;20285;-63
2022/03/12 04:23:35;;;;;;;6.90;6.20;;;;;;;;;;5095154;28;20194;-65
2022/03/12 04:26:02;;;;;;;8.15;6.82;;;;;;;;;;5095138;28;20194;-64
2022/03/12 04:28:32;;;;;;;8.65;6.32;;;;;;;;;;5094846;28;20205;-63
2022/03/12 04:30:59;;;;;;;9.00;8.10;;;;;;;;;;5095133;28;20199;-63
2022/03/12 04:33:28;;;;;;;7.93;6.82;;;;;;;;;;5095016;28;20195;-63
2022/03/12 04:35:56;;;;;;;9.90;8.30;;;;;;;;;;5094968;28;20660;-63
2022/03/12 04:38:23;;;;;;;16.60;6.95;;;;;;;;;;5093595;28;20228;-63
2022/03/12 04:40:53;;;;;;;9.88;7.13;;;;;;;;;;5095523;28;20191;-63
2022/03/12 04:43:21;;;;;;;8.50;6.93;;;;;;;;;;5094427;28;20190;-63
2022/03/12 04:45:49;;;;;;;14.30;7.70;;;;;;;;;;5094434;28;20203;-63
2022/03/12 04:48:17;;;;;;;10.88;6.88;;;;;;;;;;5094644;28;20231;-64
2022/03/12 04:50:45;;;;;;;7.63;6.57;;;;;;;;;;5094317;28;20669;-64
2022/03/12 04:53:12;;;;;;;8.90;6.75;;;;;;;;;;5094157;28;20206;-63
2022/03/12 04:55:41;;;;;;;10.77;6.90;;;;;;;;;;5095251;28;20272;-64
2022/03/12 04:58:10;;;;;;;8.32;7.00;;;;;;;;;;5094344;28;20746;-63
2022/03/12 05:00:39;;;;;;;7.47;6.72;;;;;;;;;;5094222;28;20224;-63
2022/03/12 05:03:08;;;;;;;12.25;7.88;;;;;;;;;;5094357;28;20532;-63
2022/03/12 05:05:39;;;;;;;8.52;6.97;;;;;;;;;;5094917;28;20285;-63
2022/03/12 05:08:06;;;;;;;9.40;6.55;;;;;;;;;;5094056;28;20186;-63
2022/03/12 05:10:34;;;;;;;9.27;6.63;;;;;;;;;;5094035;28;20204;-63
2022/03/12 05:13:01;;;;;;;7.78;6.72;;;;;;;;;;5094387;28;20675;-63
2022/03/12 05:15:32;;;;;;;11.68;6.72;;;;;;;;;;5094663;28;20229;-62
2022/03/12 05:18:01;;;;;;;10.05;7.28;;;;;;;;;;5094482;28;20248;-63
2022/03/12 05:20:29;;;;;;;9.13;7.18;;;;;;;;;;5094088;28;20202;-63
2022/03/12 05:22:56;;;;;;;8.75;6.22;;;;;;;;;;5093772;28;20206;-63
2022/03/12 05:25:23;;;;;;;8.30;6.38;;;;;;;;;;5093814;28;20204;-63
2022/03/12 05:27:51;;;;;;;9.65;6.80;;;;;;;;;;5093137;28;20686;-63
2022/03/12 05:30:19;;;;;;;8.32;7.00;;;;;;;;;;5094094;28;20198;-62
2022/03/12 05:32:48;;;;;;;7.70;6.60;;;;;;;;;;5093596;28;20202;-62
2022/03/12 05:35:17;;;;;;;9.48;7.97;;;;;;;;;;5093911;28;20609;-63
2022/03/12 05:37:45;;;;;;;8.52;6.40;;;;;;;;;;5093807;28;20229;-62
2022/03/12 05:40:17;;;;;;;7.80;6.28;;;;;;;;;;5093497;28;20195;-63
2022/03/12 05:42:44;;;;;;;8.00;6.40;;;;;;;;;;5094236;28;20227;-62
2022/03/12 05:45:12;;;;;;;9.63;6.85;;;;;;;;;;5093485;28;20193;-63
2022/03/12 05:47:41;;;;;;;10.10;6.38;;;;;;;;;;5093567;28;20210;-63
2022/03/12 05:50:12;;;;;;;11.27;7.55;;;;;;;;;;5093565;28;20191;-63
2022/03/12 05:52:40;;;;;;;11.23;7.38;;;;;;;;;;5094054;28;20547;-62
2022/03/12 05:55:08;;;;;;;7.88;7.05;;;;;;;;;;5093604;28;20226;-63
2022/03/12 05:57:36;;;;;;;8.55;6.50;;;;;;;;;;5093615;28;20215;-63
2022/03/12 06:00:05;;;;;;;10.85;7.18;;;;;;;;;;5093781;28;20205;-63
2022/03/12 06:02:32;;;;;;;11.57;8.38;;;;;;;;;;5093283;28;20231;-63
2022/03/12 06:04:59;;;;;;;10.85;7.25;;;;;;;;;;5093249;28;20209;-63
2022/03/12 06:07:29;;;;;;;10.00;7.60;;;;;;;;;;5093679;28;20289;-63
2022/03/12 06:09:56;;;;;;;10.80;7.55;;;;;;;;;;5093210;28;20656;-63
2022/03/12 06:12:25;;;;;;;9.70;7.38;;;;;;;;;;5093601;28;20205;-63
2022/03/12 06:14:55;;;;;;;10.45;7.72;;;;;;;;;;5093393;28;20232;-62
2022/03/12 06:17:24;;;;;;;10.45;7.45;;;;;;;;;;5093582;28;20226;-62
2022/03/12 06:19:51;;;;;;;10.27;7.50;;;;;;;;;;5093140;28;20198;-63
2022/03/12 06:22:19;;;;;;;10.23;8.02;;;;;;;;;;5093226;28;20676;-63
2022/03/12 06:24:49;;;;;;;10.40;7.10;;;;;;;;;;5093563;28;20298;-63
2022/03/12 06:27:20;;;;;;;10.05;7.78;;;;;;;;;;5093504;28;20175;-63
2022/03/12 06:29:48;;;;;;;11.10;8.50;;;;;;;;;;5093377;28;20274;-63
2022/03/12 06:32:15;;;;;;;10.80;7.82;;;;;;;;;;5093418;28;20209;-63
2022/03/12 06:34:43;;;;;;;13.00;7.65;;;;;;;;;;5093344;28;20200;-63
2022/03/12 06:37:10;;;;;;;18.77;7.85;;;;;;;;;;5093288;28;20232;-63
2022/03/12 06:39:38;;;;;;;12.07;8.60;;;;;;;;;;5093266;28;20284;-63
2022/03/12 06:42:07;;;;;;;10.30;7.15;;;;;;;;;;5093341;28;20202;-63
2022/03/12 06:44:37;;;;;;;7.88;6.85;;;;;;;;;;5093592;28;20221;-63
2022/03/12 06:47:07;;;;;;;11.82;7.80;;;;;;;;;;5092981;28;20225;-63
2022/03/12 06:49:35;;;;;;;12.82;8.77;;;;;;;;;;5093172;28;20218;-64
2022/03/12 06:52:03;;;;;;;10.35;6.97;;;;;;;;;;5093479;28;20199;-63
2022/03/12 06:54:30;;;;;;;10.32;7.63;;;;;;;;;;5092641;28;20622;-63
2022/03/12 06:56:57;;;;;;;11.15;7.22;;;;;;;;;;5092880;28;20563;-63
2022/03/12 06:59:26;;;;;;;7.97;6.72;;;;;;;;;;5092536;28;20211;-66
2022/03/12 07:01:53;;;;;;;12.57;7.78;;;;;;;;;;5094526;28;20250;-63
2022/03/12 07:04:21;;;;;;;12.27;7.75;;;;;;;;;;5096790;28;20190;-63
2022/03/12 07:06:49;;;;;;;10.20;7.10;;;;;;;;;;5096767;28;20196;-63
2022/03/12 07:09:16;;;;;;;11.45;8.75;;;;;;;;;;5096652;28;20233;-62
2022/03/12 07:11:43;;;;;;;11.63;6.85;;;;;;;;;;5096465;28;20191;-63
2022/03/12 07:14:11;;;;;;;14.63;8.68;;;;;;;;;;5096188;28;20194;-63
2022/03/12 07:16:39;;;;;;;10.25;7.88;;;;;;;;;;5095539;28;20200;-63
2022/03/12 07:19:07;;;;;;;17.02;9.02;;;;;;;;;;5095138;28;20210;-63
2022/03/12 07:21:34;;;;;;;9.52;8.00;;;;;;;;;;5095863;28;20198;-63
2022/03/12 07:24:01;;;;;;;8.45;7.30;;;;;;;;;;5096547;28;20613;-63
2022/03/12 07:26:28;;;;;;;10.95;8.57;;;;;;;;;;5096293;28;20284;-63
2022/03/12 07:28:55;;;;;;;11.65;7.32;;;;;;;;;;5096024;28;20600;-63
2022/03/12 07:31:24;;;;;;;8.25;7.22;;;;;;;;;;5096159;28;20285;-64
2022/03/12 07:33:53;;;;;;;15.85;9.20;;;;;;;;;;5096303;28;20210;-63
2022/03/12 07:36:20;;;;;;;14.18;8.88;;;;;;;;;;5096168;28;20730;-64
2022/03/12 07:38:47;;;;;;;12.93;7.40;;;;;;;;;;5096120;28;20247;-64
2022/03/12 07:41:15;;;;;;;9.55;7.93;;;;;;;;;;5095948;28;20285;-64
2022/03/12 07:43:43;;;;;;;11.90;8.20;;;;;;;;;;5095779;28;20195;-64
2022/03/12 07:46:10;;;;;;;13.02;8.30;;;;;;;;;;5095736;28;20680;-63
2022/03/12 07:48:37;;;;;;;12.55;8.27;;;;;;;;;;5095920;28;20561;-63
2022/03/12 07:51:06;;;;;;;15.48;8.05;;;;;;;;;;5095344;28;20205;-63
2022/03/12 07:53:33;;;;;;;10.30;6.82;;;;;;;;;;5095811;28;20418;-63
2022/03/12 07:56:00;;;;;;;8.65;7.68;;;;;;;;;;5095652;28;20616;-63
2022/03/12 07:58:28;;;;;;;9.95;8.20;;;;;;;;;;5095352;28;20214;-63
2022/03/12 08:00:59;;;;;;;12.07;7.80;;;;;;;;;;5095951;28;20232;-63
2022/03/12 08:03:26;;;;;;;13.55;9.77;;;;;;;;;;5095963;28;20288;-63
2022/03/12 08:05:54;;;;;;;14.43;9.05;;;;;;;;;;5095518;28;20204;-63
2022/03/12 08:08:22;;;;;;;9.10;7.25;;;;;;;;;;5095999;28;20209;-63
2022/03/12 08:13:36;;;;;;;11.98;9.27;;;;;;;;;;5094648;28;20203;-63
2022/03/12 08:16:04;;;;;;;13.10;9.10;;;;;;;;;;5095369;28;20282;-63
2022/03/12 08:18:31;;;;;;;10.20;7.55;;;;;;;;;;5094934;28;20252;-64
2022/03/12 08:20:59;;;;;;;12.60;8.68;;;;;;;;;;5094716;28;20228;-63
2022/03/12 08:23:27;;;;;;;12.45;7.47;;;;;;;;;;5095039;28;20274;-63
2022/03/12 08:25:55;;;;;;;13.38;9.07;;;;;;;;;;5094990;28;20199;-64
2022/03/12 08:28:22;;;;;;;12.40;7.88;;;;;;;;;;5095281;28;20211;-63
2022/03/12 08:30:50;;;;;;;14.05;8.15;;;;;;;;;;5094929;28;20203;-64
2022/03/12 08:33:17;;;;;;;11.30;10.10;;;;;;;;;;5095015;28;20204;-63
2022/03/12 08:35:44;;;;;;;17.52;10.38;;;;;;;;;;5094854;28;20196;-64
2022/03/12 08:38:12;;;;;;;10.93;8.70;;;;;;;;;;5094857;28;20218;-64
2022/03/12 08:40:40;;;;;;;9.73;8.57;;;;;;;;;;5094515;28;20665;-64
2022/03/12 08:43:07;;;;;;;11.93;8.30;;;;;;;;;;5094854;28;20203;-63
2022/03/12 08:45:35;;;;;;;10.18;8.23;;;;;;;;;;5094598;28;20196;-63
2022/03/12 08:48:02;;;;;;;9.82;8.80;;;;;;;;;;5094371;28;20200;-64
2022/03/12 08:50:29;;;;;;;10.88;8.82;;;;;;;;;;5094690;28;20289;-63
2022/03/12 08:52:57;;;;;;;10.73;8.32;;;;;;;;;;5094423;28;20246;-63
2022/03/12 08:55:25;;;;;;;9.93;7.18;;;;;;;;;;5094551;28;20232;-63
2022/03/12 08:57:55;;;;;;;15.23;9.38;;;;;;;;;;5094358;28;20600;-64
2022/03/12 09:00:24;;;;;;;9.82;8.20;;;;;;;;;;5094476;28;20280;-63
2022/03/12 09:02:51;;;;;;;15.50;8.80;;;;;;;;;;5094589;28;20554;-64
2022/03/12 09:05:19;;;;;;;10.50;7.65;;;;;;;;;;5094179;28;20602;-64
2022/03/12 09:07:48;;;;;;;10.77;8.23;;;;;;;;;;5094265;28;20197;-63
2022/03/12 09:10:16;;;;;;;12.13;8.68;;;;;;;;;;5094623;28;20270;-64
2022/03/12 09:12:44;;;;;;;8.93;8.02;;;;;;;;;;5094295;28;20200;-64
2022/03/12 09:15:14;;;;;;;10.70;8.73;;;;;;;;;;5094020;28;20227;-64
2022/03/12 09:17:42;;;;;;;12.00;8.30;;;;;;;;;;5094426;28;20194;-64
2022/03/12 09:20:09;;;;;;;9.53;8.53;;;;;;;;;;5094108;28;20574;-64
2022/03/12 09:22:37;;;;;;;12.68;8.18;;;;;;;;;;5093727;28;20438;-63
2022/03/12 09:25:07;;;;;;;10.07;8.18;;;;;;;;;;5094063;28;20196;-65
2022/03/12 09:27:35;;;;;;;11.25;8.75;;;;;;;;;;5093912;28;20181;-64
2022/03/12 09:30:04;;;;;;;9.38;7.45;;;;;;;;;;5094883;28;20200;-64
2022/03/12 09:32:33;;;;;;;14.07;9.37;;;;;;;;;;5094168;28;20204;-64
2022/03/12 09:35:00;;;;;;;9.70;7.90;;;;;;;;;;5093646;28;20501;-64
2022/03/12 09:37:27;;;;;;;10.63;8.55;;;;;;;;;;5093879;28;20304;-64
2022/03/12 09:39:54;;;;;;;11.85;7.55;;;;;;;;;;5093895;28;20223;-64
2022/03/12 09:42:23;;;;;;;12.32;9.00;;;;;;;;;;5094021;28;20197;-64
2022/03/12 09:44:51;;;;;;;11.43;8.20;;;;;;;;;;5093373;28;20207;-68
2022/03/12 09:47:18;;;;;;;14.47;8.33;;;;;;;;;;5093776;28;20193;-65
2022/03/12 09:49:47;;;;;;;11.90;7.43;;;;;;;;;;5093579;28;20449;-65
2022/03/12 09:52:14;;;;;;;11.20;8.77;;;;;;;;;;5093632;28;20443;-65
2022/03/12 09:54:42;;;;;;;14.67;9.40;;;;;;;;;;5093810;28;20224;-67
2022/03/12 09:57:09;;;;;;;11.95;8.75;;;;;;;;;;5093555;28;20454;-66
2022/03/12 09:59:36;;;;;;;11.43;7.97;;;;;;;;;;5093834;28;20308;-66
2022/03/12 10:02:04;;;;;;;11.70;9.50;;;;;;;;;;5093514;28;20500;-67
2022/03/12 10:04:31;;;;;;;11.80;8.73;;;;;;;;;;5093300;28;20435;-66
2022/03/12 10:07:00;;;;;;;9.33;8.37;;;;;;;;;;5093214;28;20812;-66
2022/03/12 10:09:27;;;;;;;11.37;8.60;;;;;;;;;;5093256;28;20960;-66
2022/03/12 10:11:54;;;;;;;8.70;7.80;;;;;;;;;;5093954;28;20440;-66
2022/03/12 10:14:24;;;;;;;11.80;8.10;;;;;;;;;;5093589;28;20439;-66
2022/03/12 10:16:51;;;;;;;11.87;8.80;;;;;;;;;;5093183;28;20440;-66
2022/03/12 10:19:19;;;;;;;10.27;9.00;;;;;;;;;;5093346;28;20478;-66
2022/03/12 10:21:46;;;;;;;10.10;8.10;;;;;;;;;;5093522;28;20945;-67
2022/03/12 10:24:14;;;;;;;11.00;8.40;;;;;;;;;;5093169;28;20936;-67
2022/03/12 10:26:42;;;;;;;10.97;8.37;;;;;;;;;;5093151;28;20921;-66
2022/03/12 10:29:09;;;;;;;9.63;8.17;;;;;;;;;;5093241;28;20445;-67
2022/03/12 10:31:38;;;;;;;13.03;9.70;;;;;;;;;;5092915;28;20439;-66
2022/03/12 10:34:14;;;;;;;11.77;8.10;;;;;;;;;;5093193;28;20457;-66
2022/03/12 10:36:41;;;;;;;11.60;9.30;;;;;;;;;;5094994;28;20432;-66
2022/03/12 10:39:10;;;;;;;10.27;9.20;;;;;;;;;;5097291;28;20477;-66
2022/03/12 10:41:38;;;;;;;9.77;7.67;;;;;;;;;;5097657;28;20440;-66
2022/03/12 10:44:06;;;;;;;11.40;8.43;;;;;;;;;;5096735;28;20873;-64
2022/03/12 10:46:35;;;;;;;9.13;8.23;;;;;;;;;;5096785;28;20450;-66
2022/03/12 10:49:03;;;;;;;12.13;9.03;;;;;;;;;;5096952;28;20445;-65
2022/03/12 10:51:32;;;;;;;9.67;8.57;;;;;;;;;;5096904;28;20439;-66
2022/03/12 10:54:04;;;;;;;10.40;8.50;;;;;;;;;;5096802;28;20478;-65
2022/03/12 10:56:43;;;;;;;8.80;7.90;;;;;;;;;;5097205;28;20424;-65
2022/03/12 10:59:19;;;;;;;12.03;9.07;;;;;;;;;;5096469;28;20467;-65
2022/03/12 11:01:50;;;;;;;15.80;9.37;;;;;;;;;;5096531;28;20936;-65
2022/03/12 11:04:19;;;;;;;12.20;8.20;;;;;;;;;;5096369;28;20439;-65
2022/03/12 11:06:46;;;;;;;12.73;9.27;;;;;;;;;;5096389;28;20483;-65
2022/03/12 11:09:18;;;;;;;12.30;9.30;;;;;;;;;;5096359;28;20924;-65
2022/03/12 11:11:47;;;;;;;10.43;8.83;;;;;;;;;;5096376;28;20424;-65
2022/03/12 11:14:19;;;;;;;10.57;9.47;;;;;;;;;;5096419;28;20444;-65
2022/03/12 11:16:51;;;;;;;10.70;8.57;;;;;;;;;;5096337;28;20518;-65
2022/03/12 11:19:37;;;;;;;10.47;8.30;;;;;;;;;;5096633;28;20472;-65
2022/03/12 11:22:09;;;;;;;10.90;8.83;;;;;;;;;;5096943;28;20503;-65
2022/03/12 11:24:44;;;;;;;11.03;8.10;;;;;;;;;;5096702;28;20447;-66
2022/03/12 11:27:14;;;;;;;9.10;8.10;;;;;;;;;;5095974;28;20471;-65
2022/03/12 11:29:41;;;;;;;13.73;10.27;;;;;;;;;;5095907;28;20443;-65
2022/03/12 11:32:09;;;;;;;10.03;8.23;;;;;;;;;;5096451;28;20539;-65
2022/03/12 11:34:40;;;;;;;10.43;9.33;;;;;;;;;;5096250;28;20440;-65
2022/03/12 11:37:12;;;;;;;11.63;9.77;;;;;;;;;;5096309;28;20493;-65
2022/03/12 11:39:41;;;;;;;8.90;7.77;;;;;;;;;;5095990;28;20538;-65
2022/03/12 11:42:11;;;;;;;8.57;7.73;;;;;;;;;;5095687;28;20496;-65
2022/03/12 11:44:40;;;;;;;7.50;6.60;;;;;;;;;;5095995;28;20790;-65
2022/03/12 11:47:08;;;;;;;10.77;7.50;;;;;;;;;;5095556;28;20941;-65
2022/03/12 11:49:36;;;;;;;13.47;9.10;;;;;;;;;;5095767;28;20484;-65
2022/03/12 11:52:04;;;;;;;12.50;8.07;;;;;;;;;;5095874;28;20440;-65
2022/03/12 11:54:31;;;;;;;9.70;7.43;;;;;;;;;;5095714;28;20476;-66
2022/03/12 11:56:59;;;;;;;8.13;7.20;;;;;;;;;;5095506;28;20542;-65
2022/03/12 11:59:27;;;;;;;10.93;7.00;;;;;;;;;;5095539;28;20530;-65
2022/03/12 12:02:25;;;;;;;10.40;7.93;;;;;;;;;;5095465;28;20446;-66
2022/03/12 12:04:54;;;;;;;9.40;7.80;;;;;;;;;;5094990;28;20463;-66
2022/03/12 12:07:21;;;;;;;9.33;8.17;;;;;;;;;;5094670;28;20454;-66
2022/03/12 12:09:48;;;;;;;8.27;7.40;;;;;;;;;;5093588;28;20467;-65
2022/03/12 12:12:16;;;;;;;8.63;7.73;;;;;;;;;;5095034;28;20436;-66
2022/03/12 12:14:44;;;;;;;10.10;7.37;;;;;;;;;;5094372;28;20516;-66
2022/03/12 12:17:11;;;;;;;9.90;8.30;;;;;;;;;;5094606;28;20443;-66
2022/03/12 12:19:38;;;;;;;8.43;7.60;;;;;;;;;;5094698;28;20484;-66
2022/03/12 12:22:08;;;;;;;8.00;6.47;;;;;;;;;;5094519;28;20512;-66
2022/03/12 12:24:36;;;;;;;7.60;6.80;;;;;;;;;;5095130;28;20455;-67
2022/03/12 12:27:04;;;;;;;8.07;6.97;;;;;;;;;;5095130;28;20531;-66
2022/03/12 12:29:44;;;;;;;9.50;7.50;;;;;;;;;;5094452;28;20449;-66
2022/03/12 12:32:13;;;;;;;10.57;7.60;;;;;;;;;;5094692;28;20480;-66
2022/03/12 12:34:58;;;;;;;13.23;7.10;;;;;;;;;;5094604;28;20435;-66
2022/03/12 12:37:40;;;;;;;11.60;8.23;;;;;;;;;;5095003;28;20494;-67
2022/03/12 12:40:14;;;;;;;7.93;6.87;;;;;;;;;;5094653;28;20468;-66
2022/03/12 12:42:42;;;;;;;7.30;6.40;;;;;;;;;;5095259;28;20435;-66
2022/03/12 12:45:11;;;;;;;7.03;6.33;;;;;;;;;;5094509;28;20956;-66
2022/03/12 12:47:39;;;;;;;6.37;5.70;;;;;;;;;;5094511;28;20444;-66
2022/03/12 12:50:07;;;;;;;6.10;5.47;;;;;;;;;;5094474;28;20494;-66
2022/03/12 12:52:36;;;;;;;10.07;6.70;;;;;;;;;;5094188;28;20442;-66
2022/03/12 12:55:04;;;;;;;8.43;6.60;;;;;;;;;;5094013;28;20846;-66
2022/03/12 12:57:41;;;;;;;8.27;6.83;;;;;;;;;;5094662;28;20472;-66
2022/03/12 13:00:27;;;;;;;7.93;7.13;;;;;;;;;;5093512;28;20480;-66
2022/03/12 13:02:54;;;;;;;8.77;6.87;;;;;;;;;;5087137;28;20448;-66
2022/03/12 13:05:25;;;;;;;8.40;7.03;;;;;;;;;;5093793;28;20929;-66
2022/03/12 13:08:01;;;;;;;10.20;7.17;;;;;;;;;;5094078;28;20425;-66
2022/03/12 13:10:29;;;;;;;6.80;6.10;;;;;;;;;;5094365;28;20435;-66
2022/03/12 13:13:09;;;;;;;11.93;6.20;;;;;;;;;;5093697;28;20471;-66
2022/03/12 13:15:38;;;;;;;7.57;6.80;;;;;;;;;;5093950;28;20434;-67
2022/03/12 13:18:15;;;;;;;7.70;6.20;;;;;;;;;;5094057;28;20446;-67
2022/03/12 13:20:45;;;;;;;7.50;6.67;;;;;;;;;;5093587;28;20986;-66
2022/03/12 13:23:15;;;;;;;10.27;6.73;;;;;;;;;;5093868;28;20424;-66
2022/03/12 13:25:49;;;;;;;8.87;7.97;;;;;;;;;;5094682;28;20780;-67
2022/03/12 13:28:34;;;;;;;6.60;6.00;;;;;;;;;;5094232;28;20448;-67
2022/03/12 13:31:01;;;;;;;8.03;7.23;;;;;;;;;;5093900;28;20428;-66
2022/03/12 13:33:29;;;;;;;7.00;6.30;;;;;;;;;;5093492;28;20534;-66
2022/03/12 13:35:56;;;;;;;8.20;7.40;;;;;;;;;;5093580;28;20605;-67
2022/03/12 13:38:25;;;;;;;11.00;7.80;;;;;;;;;;5093488;28;20531;-67
2022/03/12 13:40:52;;;;;;;8.47;6.93;;;;;;;;;;5093490;28;20476;-66
2022/03/12 13:43:19;;;;;;;7.50;6.73;;;;;;;;;;5093497;28;20450;-67
2022/03/12 13:45:59;;;;;;;9.97;7.47;;;;;;;;;;5093602;28;20538;-66
2022/03/12 13:48:26;;;;;;;8.13;6.10;;;;;;;;;;5093278;28;20463;-67
2022/03/12 13:50:56;;;;;;;7.30;6.60;;;;;;;;;;5093115;28;20895;-66
2022/03/12 13:53:29;;;;;;;10.60;7.07;;;;;;;;;;5093781;28;20471;-66
2022/03/12 13:56:02;;;;;;;7.73;6.93;;;;;;;;;;5093491;28;20436;-66
2022/03/12 13:58:30;;;;;;;7.93;7.13;;;;;;;;;;5093328;28;20922;-66
2022/03/12 14:01:00;;;;;;;9.33;6.37;;;;;;;;;;5093262;28;20567;-66
2022/03/12 14:03:30;;;;;;;7.50;6.80;;;;;;;;;;5093141;28;21036;-66
2022/03/12 14:05:57;;;;;;;6.90;6.10;;;;;;;;;;5093685;28;20458;-66
2022/03/12 14:08:29;;;;;;;6.93;6.23;;;;;;;;;;5093107;28;20960;-66
2022/03/12 14:10:57;;;;;;;7.03;6.00;;;;;;;;;;5095210;28;20469;-66
2022/03/12 14:13:24;;;;;;;7.43;5.80;;;;;;;;;;5097208;28;21028;-65
2022/03/12 14:15:52;;;;;;;10.30;7.17;;;;;;;;;;5097207;28;20467;-66
2022/03/12 14:18:23;;;;;;;7.60;6.50;;;;;;;;;;5097769;28;20512;-66
2022/03/12 14:20:51;;;;;;;7.57;6.47;;;;;;;;;;5097163;28;20991;-66
2022/03/12 14:23:22;;;;;;;7.07;6.37;;;;;;;;;;5097666;28;20448;-66
2022/03/12 14:25:50;;;;;;;7.23;6.13;;;;;;;;;;5097174;28;20467;-66
2022/03/12 14:28:21;;;;;;;6.90;6.20;;;;;;;;;;5097684;28;20438;-66
2022/03/12 14:30:48;;;;;;;9.33;6.87;;;;;;;;;;5097428;28;20432;-66
2022/03/12 14:33:16;;;;;;;7.07;6.30;;;;;;;;;;5096860;28;20937;-66
2022/03/12 14:35:44;;;;;;;7.13;6.43;;;;;;;;;;5097399;28;20444;-66
2022/03/12 14:38:11;;;;;;;9.03;7.40;;;;;;;;;;5097123;28;20522;-66
2022/03/12 14:40:39;;;;;;;7.57;6.50;;;;;;;;;;5097334;28;20572;-66
2022/03/12 14:43:07;;;;;;;9.20;7.90;;;;;;;;;;5097182;28;20778;-65
2022/03/12 14:45:35;;;;;;;9.40;7.57;;;;;;;;;;5096675;28;20446;-66
2022/03/12 14:48:05;;;;;;;8.10;7.30;;;;;;;;;;5096744;28;20440;-65